Time;durP1;ratioP1;P1;durP2;ratioP2;P2;SDS_P1;SDS_P2;PMS_P1;PMS_P2;Temp;Humidity;BMP_temperature;BMP_pressure;BME280_temperature;BME280_humidity;BME280_pressure;Samples;Min_cycle;Max_cycle;Signal;HPM_P1;HPM_P2
2022/06/03 00:02:55;;;;;;;4.10;2.62;;;;;;;;;;4370794;80;28566;-74
2022/06/03 00:09:33;;;;;;;4.40;2.60;;;;;;;;;;4368528;80;28550;-75
2022/06/03 00:15:50;;;;;;;4.55;2.77;;;;;;;;;;4291532;81;28475;-74
2022/06/03 00:22:12;;;;;;;4.75;2.72;;;;;;;;;;4288621;82;28477;-75
2022/06/03 00:28:17;;;;;;;3.87;2.62;;;;;;;;;;4306718;82;28537;-75
2022/06/03 00:34:43;;;;;;;7.97;3.20;;;;;;;;;;4223291;82;28556;-75
2022/06/03 00:41:22;;;;;;;3.70;2.50;;;;;;;;;;4245184;82;28580;-76
2022/06/03 00:47:43;;;;;;;4.50;3.02;;;;;;;;;;4245820;81;28543;-78
2022/06/03 00:54:05;;;;;;;5.47;2.75;;;;;;;;;;4289002;81;28526;-78
2022/06/03 01:00:22;;;;;;;6.08;2.90;;;;;;;;;;4369501;80;28526;-78
2022/06/03 01:06:27;;;;;;;7.15;3.37;;;;;;;;;;4366801;80;28518;-77
2022/06/03 01:12:52;;;;;;;6.30;2.75;;;;;;;;;;4343488;80;28603;-78
2022/06/03 01:19:16;;;;;;;5.10;2.60;;;;;;;;;;4276190;82;28546;-77
2022/06/03 01:25:36;;;;;;;4.92;2.52;;;;;;;;;;4270290;82;28492;-77
2022/06/03 01:32:09;;;;;;;5.05;2.87;;;;;;;;;;4290639;81;28549;-75
2022/06/03 01:38:20;;;;;;;6.25;2.65;;;;;;;;;;4288910;82;28600;-76
2022/06/03 01:44:34;;;;;;;4.47;2.77;;;;;;;;;;4337497;81;28452;-77
2022/06/03 01:51:13;;;;;;;3.83;2.92;;;;;;;;;;4218745;81;29091;-77
2022/06/03 01:57:33;;;;;;;4.97;2.85;;;;;;;;;;4324946;81;28578;-77
2022/06/03 02:03:54;;;;;;;4.95;2.80;;;;;;;;;;4321125;81;28579;-77
2022/06/03 02:10:05;;;;;;;4.05;2.87;;;;;;;;;;4381779;80;28452;-77
2022/06/03 02:16:42;;;;;;;5.03;2.90;;;;;;;;;;4361895;80;28546;-77
2022/06/03 02:23:03;;;;;;;3.85;2.83;;;;;;;;;;4338355;80;28495;-76
2022/06/03 02:35:52;;;;;;;5.03;2.98;;;;;;;;;;4360661;80;28503;-75
2022/06/03 02:42:13;;;;;;;6.53;3.05;;;;;;;;;;4363067;80;28504;-75
2022/06/03 02:48:51;;;;;;;4.83;2.58;;;;;;;;;;4356117;80;28586;-75
2022/06/03 02:54:59;;;;;;;5.42;2.92;;;;;;;;;;4359755;80;28550;-77
2022/06/03 03:01:15;;;;;;;3.98;2.80;;;;;;;;;;4389042;80;28602;-76
2022/06/03 03:07:40;;;;;;;4.87;3.08;;;;;;;;;;4357872;80;28542;-76
2022/06/03 03:14:02;;;;;;;5.30;2.98;;;;;;;;;;4343764;80;28571;-76
2022/06/03 03:20:39;;;;;;;3.60;2.87;;;;;;;;;;4242753;81;28580;-76
2022/06/03 03:26:56;;;;;;;4.65;2.58;;;;;;;;;;4251836;82;28470;-76
2022/06/03 03:33:19;;;;;;;5.00;2.70;;;;;;;;;;4276273;82;28511;-76
2022/06/03 03:39:58;;;;;;;4.65;3.17;;;;;;;;;;4280393;82;28520;-77
2022/06/03 03:46:20;;;;;;;4.75;2.83;;;;;;;;;;4303616;81;28581;-77
2022/06/03 03:52:49;;;;;;;5.08;2.90;;;;;;;;;;4368610;80;28464;-77
2022/06/03 03:59:18;;;;;;;5.42;2.65;;;;;;;;;;4369067;80;28508;-77
2022/06/03 04:05:42;;;;;;;3.10;2.47;;;;;;;;;;4355707;80;28518;-77
2022/06/03 04:12:21;;;;;;;5.17;2.58;;;;;;;;;;4367597;80;28527;-76
2022/06/03 04:18:44;;;;;;;6.70;3.62;;;;;;;;;;4369303;80;28458;-75
2022/06/03 04:24:51;;;;;;;5.40;3.90;;;;;;;;;;4293243;81;28534;-78
2022/06/03 04:31:11;;;;;;;6.78;3.80;;;;;;;;;;4321260;80;28540;-76
2022/06/03 04:37:31;;;;;;;8.05;4.00;;;;;;;;;;4280595;82;28507;-76
2022/06/03 04:43:52;;;;;;;8.98;4.22;;;;;;;;;;4270601;82;28565;-79
2022/06/03 04:50:02;;;;;;;9.78;4.58;;;;;;;;;;4282729;82;28483;-81
2022/06/03 04:56:24;;;;;;;8.73;4.60;;;;;;;;;;4250897;82;28531;-80
2022/06/03 05:02:55;;;;;;;9.53;5.78;;;;;;;;;;4273103;82;28568;-80
2022/06/03 05:09:23;;;;;;;10.50;4.78;;;;;;;;;;4332495;81;28533;-77
2022/06/03 05:15:33;;;;;;;7.65;4.90;;;;;;;;;;4388971;80;28558;-78
2022/06/03 05:22:13;;;;;;;7.25;4.72;;;;;;;;;;4365196;80;28506;-77
2022/06/03 05:28:21;;;;;;;8.48;4.30;;;;;;;;;;4292929;81;28556;-79
2022/06/03 05:34:48;;;;;;;10.25;4.65;;;;;;;;;;4182830;82;28567;-74
2022/06/03 05:41:02;;;;;;;10.85;5.45;;;;;;;;;;4364934;80;28542;-76
2022/06/03 05:47:19;;;;;;;9.48;4.87;;;;;;;;;;4360695;80;28502;-75
2022/06/03 05:54:00;;;;;;;9.50;4.35;;;;;;;;;;4371986;80;28513;-76
2022/06/03 06:00:24;;;;;;;10.65;4.62;;;;;;;;;;4370581;80;28524;-75
2022/06/03 06:06:47;;;;;;;10.78;4.22;;;;;;;;;;4363867;80;28474;-75
2022/06/03 06:13:10;;;;;;;10.30;4.50;;;;;;;;;;4364446;80;28612;-73
2022/06/03 06:19:41;;;;;;;10.50;5.53;;;;;;;;;;4373071;80;28552;-73
2022/06/03 06:25:59;;;;;;;7.97;4.42;;;;;;;;;;4285325;81;28499;-74
2022/06/03 06:32:19;;;;;;;9.78;4.97;;;;;;;;;;4353841;80;28540;-73
2022/06/03 06:38:35;;;;;;;8.40;3.92;;;;;;;;;;4360575;80;28504;-74
2022/06/03 06:44:59;;;;;;;9.70;3.92;;;;;;;;;;4362176;80;28552;-73
2022/06/03 06:51:06;;;;;;;9.13;4.35;;;;;;;;;;4376274;80;28578;-74
2022/06/03 06:57:14;;;;;;;10.18;3.62;;;;;;;;;;4283083;82;28544;-74
2022/06/03 07:03:18;;;;;;;8.53;3.25;;;;;;;;;;4290636;81;28542;-74
2022/06/03 07:09:29;;;;;;;7.72;3.45;;;;;;;;;;4278029;81;28487;-75
2022/06/03 07:15:50;;;;;;;6.20;3.10;;;;;;;;;;4279714;82;28534;-74
2022/06/03 07:22:10;;;;;;;5.08;3.20;;;;;;;;;;4237943;81;28571;-74
2022/06/03 07:28:27;;;;;;;5.47;3.37;;;;;;;;;;4337184;80;28466;-74
2022/06/03 07:34:34;;;;;;;6.47;3.40;;;;;;;;;;4369744;80;28510;-75
2022/06/03 07:40:42;;;;;;;6.85;3.37;;;;;;;;;;4375595;80;28466;-73
2022/06/03 07:47:00;;;;;;;5.33;3.37;;;;;;;;;;4361618;80;28490;-73
2022/06/03 07:53:02;;;;;;;3.87;2.53;;;;;;;;;;4299944;81;28573;-72
2022/06/03 07:59:07;;;;;;;2.77;2.27;;;;;;;;;;4314731;81;28532;-73
2022/06/03 08:05:18;;;;;;;4.95;2.40;;;;;;;;;;4308082;81;28565;-73
2022/06/03 08:11:26;;;;;;;2.67;2.30;;;;;;;;;;4312708;81;28579;-72
2022/06/03 08:17:28;;;;;;;3.47;2.40;;;;;;;;;;4310088;81;28557;-73
2022/06/03 08:23:33;;;;;;;4.90;2.50;;;;;;;;;;4328415;81;28665;-76
2022/06/03 08:29:39;;;;;;;4.58;2.37;;;;;;;;;;4320717;81;28505;-75
2022/06/03 08:35:45;;;;;;;4.10;2.30;;;;;;;;;;4247170;82;28550;-76
2022/06/03 08:42:08;;;;;;;3.50;2.58;;;;;;;;;;4264767;82;28618;-76
2022/06/03 08:48:14;;;;;;;5.03;3.65;;;;;;;;;;4257134;82;28531;-74
2022/06/03 08:54:30;;;;;;;3.77;2.45;;;;;;;;;;4260219;82;28586;-72
2022/06/03 09:00:35;;;;;;;3.65;2.50;;;;;;;;;;4188135;83;28550;-74
2022/06/03 09:07:00;;;;;;;2.40;2.20;;;;;;;;;;4199577;82;28539;-73
2022/06/03 09:13:14;;;;;;;2.98;2.37;;;;;;;;;;4224168;83;28603;-74
2022/06/03 09:19:30;;;;;;;2.55;2.35;;;;;;;;;;4226513;82;28575;-73
2022/06/03 09:25:34;;;;;;;2.65;1.67;;;;;;;;;;4186527;84;28519;-72
2022/06/03 09:31:37;;;;;;;2.70;1.90;;;;;;;;;;4302670;80;28533;-75
2022/06/03 09:37:43;;;;;;;2.87;2.00;;;;;;;;;;4363353;80;28543;-73
2022/06/03 09:43:48;;;;;;;2.30;1.97;;;;;;;;;;4245812;81;28524;-75
2022/06/03 09:49:52;;;;;;;4.42;1.85;;;;;;;;;;4270886;82;34088;-74
2022/06/03 09:55:57;;;;;;;11.40;2.20;;;;;;;;;;4284196;82;28538;-77
2022/06/03 10:01:58;;;;;;;3.77;2.20;;;;;;;;;;4289638;81;28522;-74
2022/06/03 10:08:02;;;;;;;3.65;2.05;;;;;;;;;;4284854;82;28520;-78
2022/06/03 10:14:04;;;;;;;2.27;1.72;;;;;;;;;;4281734;82;28543;-79
2022/06/03 10:20:08;;;;;;;2.72;2.00;;;;;;;;;;4227353;82;28556;-77
2022/06/03 10:26:12;;;;;;;3.10;1.90;;;;;;;;;;4279312;82;28558;-78
2022/06/03 10:32:16;;;;;;;2.50;2.10;;;;;;;;;;4362186;80;28510;-76
2022/06/03 10:38:21;;;;;;;4.40;2.00;;;;;;;;;;4368778;80;28518;-76
2022/06/03 10:44:25;;;;;;;2.08;1.80;;;;;;;;;;4385143;80;28570;-76
2022/06/03 10:50:36;;;;;;;2.92;1.95;;;;;;;;;;4370753;80;28510;-73
2022/06/03 11:02:57;;;;;;;2.98;2.20;;;;;;;;;;4362607;80;28561;-72
2022/06/03 11:09:05;;;;;;;3.45;1.77;;;;;;;;;;4362369;80;28508;-72
2022/06/03 11:15:31;;;;;;;2.37;2.10;;;;;;;;;;4370749;80;28569;-73
2022/06/03 11:21:31;;;;;;;3.08;2.00;;;;;;;;;;4376005;80;28478;-74
2022/06/03 11:27:36;;;;;;;2.00;1.80;;;;;;;;;;4368927;80;28544;-73
2022/06/03 11:34:07;;;;;;;6.08;2.02;;;;;;;;;;4376163;80;28587;-74
2022/06/03 11:40:12;;;;;;;2.47;2.05;;;;;;;;;;4382796;80;28661;-74
2022/06/03 11:46:32;;;;;;;3.10;1.82;;;;;;;;;;4369895;80;28474;-74
2022/06/03 11:52:33;;;;;;;2.95;2.00;;;;;;;;;;4364467;80;28491;-74
2022/06/03 11:58:47;;;;;;;2.47;1.90;;;;;;;;;;4297435;81;28552;-73
2022/06/03 12:05:01;;;;;;;2.25;1.80;;;;;;;;;;4262413;82;28552;-74
2022/06/03 12:11:09;;;;;;;2.52;1.87;;;;;;;;;;4347208;80;28473;-74
2022/06/03 12:17:17;;;;;;;2.47;1.75;;;;;;;;;;4350861;81;28490;-74
2022/06/03 12:23:22;;;;;;;4.40;2.00;;;;;;;;;;4362769;80;28597;-73
2022/06/03 12:29:31;;;;;;;2.17;1.90;;;;;;;;;;4353578;80;28500;-74
2022/06/03 12:35:47;;;;;;;2.27;1.80;;;;;;;;;;4361440;80;28540;-74
2022/06/03 12:41:51;;;;;;;2.58;1.82;;;;;;;;;;4346367;80;28488;-73
2022/06/03 12:47:55;;;;;;;2.00;1.65;;;;;;;;;;4370394;80;28486;-73
2022/06/03 12:53:59;;;;;;;3.25;2.00;;;;;;;;;;4360944;80;28457;-73
2022/06/03 13:00:04;;;;;;;2.08;1.80;;;;;;;;;;4361282;80;28526;-73
2022/06/03 13:06:08;;;;;;;2.40;1.80;;;;;;;;;;4362923;81;28520;-74
2022/06/03 13:12:18;;;;;;;1.67;1.50;;;;;;;;;;4364641;80;28592;-73
2022/06/03 13:18:43;;;;;;;3.65;1.90;;;;;;;;;;4368121;80;28512;-74
2022/06/03 13:24:48;;;;;;;2.05;1.85;;;;;;;;;;4359907;80;28549;-74
2022/06/03 13:31:05;;;;;;;2.75;1.80;;;;;;;;;;4347497;80;28549;-73
2022/06/03 13:37:33;;;;;;;3.05;1.60;;;;;;;;;;4364363;80;28555;-73
2022/06/03 13:43:34;;;;;;;4.08;1.67;;;;;;;;;;4356451;80;28582;-74
2022/06/03 13:49:36;;;;;;;2.75;1.70;;;;;;;;;;4361029;80;28452;-74
2022/06/03 13:55:41;;;;;;;2.40;1.80;;;;;;;;;;4358177;80;28507;-73
2022/06/03 14:01:46;;;;;;;2.30;1.87;;;;;;;;;;4301737;82;28540;-73
2022/06/03 14:08:05;;;;;;;2.33;1.82;;;;;;;;;;4299242;81;28556;-74
2022/06/03 14:14:18;;;;;;;2.22;1.90;;;;;;;;;;4322164;81;28463;-74
2022/06/03 14:20:29;;;;;;;3.90;1.77;;;;;;;;;;4289544;82;28550;-74
2022/06/03 14:26:39;;;;;;;2.10;1.85;;;;;;;;;;4297222;81;28511;-74
2022/06/03 14:32:44;;;;;;;1.82;1.47;;;;;;;;;;4353742;80;28539;-73
2022/06/03 14:38:49;;;;;;;2.33;1.80;;;;;;;;;;4391743;80;28508;-72
2022/06/03 14:44:50;;;;;;;2.47;1.70;;;;;;;;;;4295823;81;28509;-73
2022/06/03 14:50:58;;;;;;;3.20;1.70;;;;;;;;;;4290337;81;28491;-73
2022/06/03 14:57:02;;;;;;;3.62;1.70;;;;;;;;;;4295472;81;28574;-73
2022/06/03 15:03:16;;;;;;;2.10;1.75;;;;;;;;;;4287144;81;28544;-73
2022/06/03 15:09:27;;;;;;;3.50;1.80;;;;;;;;;;4365498;80;28502;-74
2022/06/03 15:15:32;;;;;;;2.27;1.50;;;;;;;;;;4362557;80;28495;-73
2022/06/03 15:21:36;;;;;;;2.03;1.83;;;;;;;;;;4363969;80;28518;-73
2022/06/03 15:27:41;;;;;;;2.87;1.90;;;;;;;;;;4349345;80;28452;-73
2022/06/03 15:33:45;;;;;;;1.75;1.60;;;;;;;;;;4351273;80;28592;-73
2022/06/03 15:39:51;;;;;;;2.35;1.62;;;;;;;;;;4347358;81;28477;-73
2022/06/03 15:45:52;;;;;;;2.45;1.80;;;;;;;;;;4344192;80;28471;-73
2022/06/03 15:51:54;;;;;;;3.27;1.70;;;;;;;;;;4347123;80;28468;-73
2022/06/03 15:58:14;;;;;;;2.70;1.65;;;;;;;;;;4365605;80;28565;-73
2022/06/03 16:04:36;;;;;;;1.87;1.67;;;;;;;;;;4372549;80;28546;-74
2022/06/03 16:10:59;;;;;;;3.35;1.57;;;;;;;;;;4337899;80;28512;-73
2022/06/03 16:17:32;;;;;;;2.58;1.67;;;;;;;;;;4353324;80;28557;-74
2022/06/03 16:23:42;;;;;;;3.83;1.92;;;;;;;;;;4360431;80;28541;-73
2022/06/03 16:30:02;;;;;;;2.47;1.60;;;;;;;;;;4335309;80;28538;-72
2022/06/03 16:36:16;;;;;;;2.47;1.47;;;;;;;;;;4348422;81;28507;-72
2022/06/03 16:42:32;;;;;;;2.72;1.52;;;;;;;;;;4338507;80;28533;-72
2022/06/03 16:48:52;;;;;;;1.47;1.37;;;;;;;;;;4360201;80;28489;-74
2022/06/03 16:55:01;;;;;;;3.35;1.80;;;;;;;;;;4355570;80;28488;-72
2022/06/03 17:01:05;;;;;;;1.95;1.45;;;;;;;;;;4353099;81;28448;-72
2022/06/03 17:07:06;;;;;;;1.95;1.52;;;;;;;;;;4356943;80;28479;-73
2022/06/03 17:13:08;;;;;;;3.55;1.80;;;;;;;;;;4364005;80;28538;-72
2022/06/03 17:19:11;;;;;;;2.40;1.50;;;;;;;;;;4360868;81;28529;-73
2022/06/03 17:25:34;;;;;;;3.15;1.55;;;;;;;;;;4362157;81;28449;-72
2022/06/03 17:31:45;;;;;;;2.33;1.60;;;;;;;;;;4359348;80;28455;-73
2022/06/03 17:38:13;;;;;;;3.42;1.57;;;;;;;;;;4362273;80;28500;-73
2022/06/03 17:44:30;;;;;;;2.72;1.65;;;;;;;;;;4265658;82;28531;-75
2022/06/03 17:50:35;;;;;;;1.80;1.70;;;;;;;;;;4309908;81;28488;-74
2022/06/03 17:56:41;;;;;;;2.75;1.80;;;;;;;;;;4320074;81;28492;-73
2022/06/03 18:03:07;;;;;;;4.28;1.60;;;;;;;;;;4337896;81;28474;-74
2022/06/03 18:09:21;;;;;;;2.17;1.77;;;;;;;;;;4344037;81;28472;-73
2022/06/03 18:15:26;;;;;;;3.37;1.70;;;;;;;;;;4332333;81;28455;-73
2022/06/03 18:21:45;;;;;;;4.85;1.70;;;;;;;;;;4343804;81;28476;-73
2022/06/03 18:28:02;;;;;;;3.98;1.77;;;;;;;;;;4328888;81;28523;-74
2022/06/03 18:34:23;;;;;;;2.70;1.72;;;;;;;;;;4341478;81;28482;-73
2022/06/03 18:40:43;;;;;;;4.25;1.87;;;;;;;;;;4311451;81;28509;-73
2022/06/03 18:46:51;;;;;;;4.53;1.90;;;;;;;;;;4349942;81;28608;-73
2022/06/03 18:53:12;;;;;;;2.72;1.90;;;;;;;;;;4342456;81;28469;-73
2022/06/03 18:59:40;;;;;;;4.30;2.20;;;;;;;;;;4346068;81;28539;-74
2022/06/03 19:05:48;;;;;;;3.85;2.00;;;;;;;;;;4364666;81;28463;-74
2022/06/03 19:12:19;;;;;;;6.87;1.90;;;;;;;;;;4359822;81;28535;-74
2022/06/03 19:18:33;;;;;;;2.30;2.08;;;;;;;;;;4329234;81;28537;-73
2022/06/03 19:24:59;;;;;;;3.52;2.17;;;;;;;;;;4282092;81;28516;-71
2022/06/03 19:31:16;;;;;;;4.75;2.20;;;;;;;;;;4289836;81;28542;-73
2022/06/03 19:37:39;;;;;;;4.37;2.37;;;;;;;;;;4310761;81;28480;-72
2022/06/03 19:43:47;;;;;;;4.40;2.67;;;;;;;;;;4329310;81;28468;-73
2022/06/03 19:49:59;;;;;;;3.95;2.42;;;;;;;;;;4300590;81;28467;-73
2022/06/03 19:56:13;;;;;;;3.92;2.60;;;;;;;;;;4300773;81;28479;-73
2022/06/03 20:02:27;;;;;;;3.08;2.40;;;;;;;;;;4318371;81;28574;-73
2022/06/03 20:08:48;;;;;;;5.35;2.95;;;;;;;;;;4266569;81;28514;-74
2022/06/03 20:14:56;;;;;;;6.90;3.10;;;;;;;;;;4303759;81;28486;-74
2022/06/03 20:21:04;;;;;;;4.55;2.90;;;;;;;;;;4303039;81;28477;-73
2022/06/03 20:27:24;;;;;;;7.00;2.72;;;;;;;;;;4311379;81;28523;-73
2022/06/03 20:33:35;;;;;;;3.75;2.50;;;;;;;;;;4311688;81;28578;-73
2022/06/03 20:39:42;;;;;;;5.28;2.77;;;;;;;;;;4283564;82;28522;-72
2022/06/03 20:46:05;;;;;;;5.72;3.40;;;;;;;;;;4270689;82;28511;-72
2022/06/03 20:52:13;;;;;;;4.90;2.98;;;;;;;;;;4281174;82;28490;-72
2022/06/03 20:58:21;;;;;;;4.42;2.80;;;;;;;;;;4280922;82;28548;-72
2022/06/03 21:16:48;;;;;;;4.97;3.40;;;;;;;;;;4274667;82;28470;-73
2022/06/03 21:23:01;;;;;;;9.78;3.62;;;;;;;;;;4296455;82;28545;-73
2022/06/03 21:29:04;;;;;;;6.78;3.35;;;;;;;;;;4243848;82;28626;-73
2022/06/03 21:35:15;;;;;;;12.47;6.08;;;;;;;;;;4287652;81;28575;-73
2022/06/03 21:41:29;;;;;;;10.18;5.70;;;;;;;;;;4324345;81;28497;-73
2022/06/03 21:47:36;;;;;;;8.53;4.60;;;;;;;;;;4323100;81;28524;-73
2022/06/03 21:53:56;;;;;;;7.72;4.50;;;;;;;;;;4347584;81;28482;-73
2022/06/03 22:00:22;;;;;;;10.58;5.30;;;;;;;;;;4338681;81;28465;-73
2022/06/03 22:06:24;;;;;;;8.15;4.60;;;;;;;;;;4324783;80;28552;-73
2022/06/03 22:12:44;;;;;;;8.25;5.42;;;;;;;;;;4347338;81;28540;-73
2022/06/03 22:18:46;;;;;;;11.18;7.20;;;;;;;;;;4333330;81;28536;-72
2022/06/03 22:24:47;;;;;;;11.83;6.80;;;;;;;;;;4333249;81;28520;-72
2022/06/03 22:30:51;;;;;;;10.82;4.58;;;;;;;;;;4339610;81;28495;-72
2022/06/03 22:43:42;;;;;;;6.33;3.83;;;;;;;;;;4337594;81;28482;-73
2022/06/03 22:49:43;;;;;;;7.15;3.67;;;;;;;;;;4355562;81;28450;-73
2022/06/03 22:55:46;;;;;;;6.53;4.08;;;;;;;;;;4336263;81;28517;-73
2022/06/03 23:01:49;;;;;;;4.97;3.75;;;;;;;;;;4356961;81;28486;-73
2022/06/03 23:07:50;;;;;;;6.90;3.75;;;;;;;;;;4370185;81;28459;-74
2022/06/03 23:13:51;;;;;;;6.62;3.50;;;;;;;;;;4372432;81;28498;-73
2022/06/03 23:19:53;;;;;;;5.40;3.50;;;;;;;;;;4350414;81;28557;-73
2022/06/03 23:26:02;;;;;;;6.33;3.95;;;;;;;;;;4354419;81;29054;-73
2022/06/03 23:32:05;;;;;;;5.42;3.67;;;;;;;;;;4351500;81;28484;-73
2022/06/03 23:38:05;;;;;;;7.03;3.77;;;;;;;;;;4343319;81;28518;-73
2022/06/03 23:50:28;;;;;;;10.05;4.10;;;;;;;;;;4356171;81;28436;-73
2022/06/03 23:56:29;;;;;;;5.47;4.05;;;;;;;;;;4340501;81;28543;-73
